Time;durP1;ratioP1;P1;durP2;ratioP2;P2;SDS_P1;SDS_P2;PMS_P1;PMS_P2;Temp;Humidity;BMP_temperature;BMP_pressure;BME280_temperature;BME280_humidity;BME280_pressure;Samples;Min_cycle;Max_cycle;Signal;HPM_P1;HPM_P2
2023/07/19 00:00:00;;;;;;;10.63;4.75;;;;;;;;;;773272;179;921378;-59
2023/07/19 00:02:26;;;;;;;6.83;4.40;;;;;;;;;;773657;180;921583;-60
2023/07/19 00:04:52;;;;;;;7.00;5.17;;;;;;;;;;768059;181;1020565;-60
2023/07/19 00:07:18;;;;;;;12.20;5.70;;;;;;;;;;775038;179;921743;-59
2023/07/19 00:09:44;;;;;;;9.10;5.60;;;;;;;;;;771302;178;846642;-59
2023/07/19 00:12:10;;;;;;;8.37;5.30;;;;;;;;;;773918;179;919337;-57
2023/07/19 00:14:36;;;;;;;8.33;4.80;;;;;;;;;;777186;178;936446;-60
2023/07/19 00:17:01;;;;;;;13.57;5.03;;;;;;;;;;774706;178;918036;-57
2023/07/19 00:19:27;;;;;;;11.43;6.93;;;;;;;;;;777732;180;919559;-59
2023/07/19 00:21:53;;;;;;;9.67;5.30;;;;;;;;;;774966;180;919318;-60
2023/07/19 00:24:19;;;;;;;7.80;5.53;;;;;;;;;;775392;180;922017;-59
2023/07/19 00:26:45;;;;;;;10.83;6.13;;;;;;;;;;776213;180;918960;-59
2023/07/19 00:29:11;;;;;;;13.50;5.77;;;;;;;;;;770515;179;918793;-59
2023/07/19 00:31:36;;;;;;;8.83;5.10;;;;;;;;;;769472;180;919389;-59
2023/07/19 00:34:03;;;;;;;9.63;5.70;;;;;;;;;;778285;180;837156;-59
2023/07/19 00:36:29;;;;;;;10.50;6.20;;;;;;;;;;775353;180;916129;-60
2023/07/19 00:38:55;;;;;;;8.90;4.87;;;;;;;;;;771601;181;920552;-58
2023/07/19 00:41:20;;;;;;;8.33;5.57;;;;;;;;;;773451;180;920870;-59
2023/07/19 00:43:47;;;;;;;7.57;5.87;;;;;;;;;;781102;180;816601;-56
2023/07/19 00:46:12;;;;;;;11.65;6.37;;;;;;;;;;775303;179;926203;-58
2023/07/19 00:48:38;;;;;;;12.93;6.20;;;;;;;;;;770966;179;911482;-60
2023/07/19 00:51:04;;;;;;;9.20;5.33;;;;;;;;;;781010;180;913268;-57
2023/07/19 00:53:30;;;;;;;13.13;5.77;;;;;;;;;;774897;180;914414;-56
2023/07/19 00:55:55;;;;;;;8.90;5.60;;;;;;;;;;772885;181;884514;-57
2023/07/19 00:58:21;;;;;;;10.05;5.60;;;;;;;;;;778165;180;920545;-58
2023/07/19 01:00:47;;;;;;;10.30;6.30;;;;;;;;;;770074;179;918658;-60
2023/07/19 01:03:13;;;;;;;9.73;6.83;;;;;;;;;;773589;180;918764;-59
2023/07/19 01:05:39;;;;;;;7.33;6.00;;;;;;;;;;771263;181;919295;-59
2023/07/19 01:08:05;;;;;;;11.30;5.30;;;;;;;;;;773101;181;920816;-59
2023/07/19 01:10:31;;;;;;;11.33;6.00;;;;;;;;;;772939;180;920326;-57
2023/07/19 01:13:01;;;;;;;13.40;5.93;;;;;;;;;;769856;180;919328;-58
2023/07/19 01:15:27;;;;;;;10.20;6.23;;;;;;;;;;772219;180;920403;-57
2023/07/19 01:17:53;;;;;;;9.70;6.13;;;;;;;;;;764935;181;919747;-57
2023/07/19 01:20:19;;;;;;;9.17;5.73;;;;;;;;;;774493;178;919768;-59
2023/07/19 01:22:46;;;;;;;7.20;4.83;;;;;;;;;;770508;179;919170;-59
2023/07/19 01:25:11;;;;;;;10.90;6.20;;;;;;;;;;772160;180;922857;-59
2023/07/19 01:27:37;;;;;;;10.43;5.80;;;;;;;;;;774961;179;919476;-59
2023/07/19 01:30:03;;;;;;;8.57;6.17;;;;;;;;;;775498;179;923790;-57
2023/07/19 01:32:28;;;;;;;6.60;5.37;;;;;;;;;;778161;180;919266;-59
2023/07/19 01:34:54;;;;;;;10.90;5.77;;;;;;;;;;773228;180;919260;-57
2023/07/19 01:37:20;;;;;;;10.00;5.53;;;;;;;;;;773526;179;919195;-58
2023/07/19 01:39:46;;;;;;;12.60;6.60;;;;;;;;;;776845;179;919186;-59
2023/07/19 01:42:12;;;;;;;10.00;5.70;;;;;;;;;;775922;178;918826;-57
2023/07/19 01:44:38;;;;;;;8.77;5.70;;;;;;;;;;775785;179;921245;-58
2023/07/19 01:47:03;;;;;;;11.87;5.80;;;;;;;;;;771306;179;921990;-58
2023/07/19 01:49:29;;;;;;;9.93;6.00;;;;;;;;;;773698;179;916095;-59
2023/07/19 01:51:55;;;;;;;11.37;5.60;;;;;;;;;;776433;179;921243;-58
2023/07/19 01:54:21;;;;;;;10.50;5.40;;;;;;;;;;774156;179;922674;-57
2023/07/19 01:56:47;;;;;;;10.00;6.50;;;;;;;;;;782135;179;811650;-58
2023/07/19 01:59:13;;;;;;;13.60;5.60;;;;;;;;;;773866;180;923368;-57
2023/07/19 02:01:39;;;;;;;9.77;5.85;;;;;;;;;;773877;179;916550;-58
2023/07/19 02:04:04;;;;;;;9.00;6.30;;;;;;;;;;780233;178;920746;-57
2023/07/19 02:06:30;;;;;;;8.47;5.43;;;;;;;;;;771697;180;820064;-57
2023/07/19 02:08:56;;;;;;;11.10;5.60;;;;;;;;;;768116;180;919460;-59
2023/07/19 02:11:22;;;;;;;6.78;5.45;;;;;;;;;;777888;180;919613;-58
2023/07/19 02:13:48;;;;;;;12.53;5.50;;;;;;;;;;773787;181;919647;-58
2023/07/19 02:16:15;;;;;;;8.50;4.60;;;;;;;;;;770919;180;919436;-57
2023/07/19 02:18:39;;;;;;;7.10;5.00;;;;;;;;;;770426;180;919156;-57
2023/07/19 02:21:05;;;;;;;10.53;5.27;;;;;;;;;;777669;181;919855;-58
2023/07/19 02:23:31;;;;;;;11.17;5.97;;;;;;;;;;776275;180;919323;-57
2023/07/19 02:25:57;;;;;;;9.73;5.47;;;;;;;;;;763998;181;920049;-59
2023/07/19 02:28:23;;;;;;;8.57;5.17;;;;;;;;;;773334;181;919744;-57
2023/07/19 02:30:49;;;;;;;8.18;5.53;;;;;;;;;;777436;178;919546;-59
2023/07/19 02:33:14;;;;;;;8.23;5.07;;;;;;;;;;775150;179;917706;-59
2023/07/19 02:35:41;;;;;;;11.03;6.27;;;;;;;;;;779673;178;913544;-59
2023/07/19 02:38:06;;;;;;;9.40;5.90;;;;;;;;;;777247;179;919878;-59
2023/07/19 02:40:32;;;;;;;8.43;5.43;;;;;;;;;;774432;179;918626;-59
2023/07/19 02:42:58;;;;;;;11.93;6.10;;;;;;;;;;774557;180;919430;-57
2023/07/19 02:45:24;;;;;;;10.33;6.30;;;;;;;;;;774773;180;919305;-60
2023/07/19 02:47:50;;;;;;;10.00;5.80;;;;;;;;;;769125;180;920263;-59
2023/07/19 02:50:16;;;;;;;12.33;6.07;;;;;;;;;;775297;179;919046;-61
2023/07/19 02:52:42;;;;;;;10.37;6.70;;;;;;;;;;776476;180;929960;-56
2023/07/19 02:55:08;;;;;;;10.90;5.93;;;;;;;;;;767423;181;919160;-58
2023/07/19 02:57:34;;;;;;;8.63;6.40;;;;;;;;;;775595;179;918988;-57
2023/07/19 02:59:59;;;;;;;8.80;6.50;;;;;;;;;;775093;180;813121;-60
2023/07/19 03:02:25;;;;;;;9.27;6.80;;;;;;;;;;770490;180;919890;-57
2023/07/19 03:04:51;;;;;;;16.20;7.50;;;;;;;;;;773508;179;918055;-56
2023/07/19 03:07:18;;;;;;;12.00;6.63;;;;;;;;;;772296;180;916751;-57
2023/07/19 03:09:43;;;;;;;9.27;7.70;;;;;;;;;;772627;181;891595;-59
2023/07/19 03:12:09;;;;;;;12.03;6.70;;;;;;;;;;773355;180;911461;-56
2023/07/19 03:14:35;;;;;;;9.97;7.23;;;;;;;;;;772880;180;910379;-57
2023/07/19 03:17:00;;;;;;;16.23;7.40;;;;;;;;;;775539;181;916271;-57
2023/07/19 03:19:26;;;;;;;9.43;6.80;;;;;;;;;;773803;180;917435;-59
2023/07/19 03:21:52;;;;;;;17.57;8.50;;;;;;;;;;766191;180;920093;-57
2023/07/19 03:24:18;;;;;;;8.57;7.10;;;;;;;;;;778293;179;916530;-59
2023/07/19 03:26:44;;;;;;;12.53;7.10;;;;;;;;;;771505;179;1019356;-57
2023/07/19 03:29:10;;;;;;;9.57;6.18;;;;;;;;;;771888;180;919630;-59
2023/07/19 03:31:35;;;;;;;10.43;7.00;;;;;;;;;;774423;180;921033;-59
2023/07/19 03:34:02;;;;;;;8.13;5.87;;;;;;;;;;773327;180;921514;-57
2023/07/19 03:36:27;;;;;;;13.97;6.60;;;;;;;;;;771972;180;918973;-56
2023/07/19 03:38:53;;;;;;;16.70;7.93;;;;;;;;;;773819;179;920746;-57
2023/07/19 03:41:19;;;;;;;10.27;7.00;;;;;;;;;;767561;181;922097;-58
2023/07/19 03:43:45;;;;;;;8.27;6.43;;;;;;;;;;771430;179;921901;-57
2023/07/19 03:46:11;;;;;;;11.77;6.90;;;;;;;;;;775032;178;920446;-57
2023/07/19 03:48:37;;;;;;;16.87;7.80;;;;;;;;;;780937;178;917994;-58
2023/07/19 03:51:02;;;;;;;12.17;7.17;;;;;;;;;;772315;179;920828;-58
2023/07/19 03:53:28;;;;;;;11.77;7.20;;;;;;;;;;774121;180;919812;-59
2023/07/19 03:55:54;;;;;;;11.52;7.25;;;;;;;;;;780310;179;823255;-59
2023/07/19 03:58:20;;;;;;;16.77;8.60;;;;;;;;;;772892;179;919217;-57
2023/07/19 04:00:46;;;;;;;10.87;7.60;;;;;;;;;;774587;180;917961;-57
2023/07/19 04:03:11;;;;;;;10.73;6.63;;;;;;;;;;770409;180;854207;-59
2023/07/19 04:05:37;;;;;;;9.90;7.50;;;;;;;;;;779102;180;864061;-57
2023/07/19 04:08:03;;;;;;;11.20;7.43;;;;;;;;;;773443;178;916379;-56
2023/07/19 04:10:29;;;;;;;9.20;7.03;;;;;;;;;;771702;180;818947;-57
2023/07/19 04:12:55;;;;;;;8.97;7.10;;;;;;;;;;780636;180;827772;-60
2023/07/19 04:15:21;;;;;;;10.30;7.27;;;;;;;;;;774433;179;921757;-56
2023/07/19 04:17:47;;;;;;;11.60;7.27;;;;;;;;;;774363;179;918327;-56
2023/07/19 04:20:13;;;;;;;13.27;6.93;;;;;;;;;;775432;180;897033;-59
2023/07/19 04:22:39;;;;;;;6.57;5.50;;;;;;;;;;775940;179;872826;-58
2023/07/19 04:25:05;;;;;;;9.33;7.23;;;;;;;;;;780256;180;629819;-60
2023/07/19 04:27:31;;;;;;;12.93;8.33;;;;;;;;;;778871;180;629205;-59
2023/07/19 04:29:57;;;;;;;16.10;7.03;;;;;;;;;;769349;180;923535;-57
2023/07/19 04:32:23;;;;;;;7.93;5.60;;;;;;;;;;776028;181;919585;-59
2023/07/19 04:34:49;;;;;;;9.80;6.78;;;;;;;;;;773480;180;919000;-57
2023/07/19 04:37:15;;;;;;;12.33;7.00;;;;;;;;;;779920;179;919865;-59
2023/07/19 04:39:41;;;;;;;8.20;6.40;;;;;;;;;;774571;179;918741;-57
2023/07/19 04:42:06;;;;;;;11.00;6.13;;;;;;;;;;774897;179;921501;-56
2023/07/19 04:44:32;;;;;;;13.07;6.97;;;;;;;;;;776769;179;921526;-56
2023/07/19 04:46:58;;;;;;;8.90;7.00;;;;;;;;;;775604;179;875262;-59
2023/07/19 04:49:25;;;;;;;11.43;5.80;;;;;;;;;;771099;180;918638;-57
2023/07/19 04:51:50;;;;;;;12.20;5.67;;;;;;;;;;777853;180;920317;-58
2023/07/19 04:54:16;;;;;;;10.73;5.83;;;;;;;;;;780638;178;914039;-56
2023/07/19 04:56:42;;;;;;;9.00;6.30;;;;;;;;;;770337;179;840468;-56
2023/07/19 04:59:08;;;;;;;10.60;7.50;;;;;;;;;;775296;179;918949;-59
2023/07/19 05:01:34;;;;;;;9.07;6.00;;;;;;;;;;781116;179;903405;-59
2023/07/19 05:04:00;;;;;;;14.23;6.33;;;;;;;;;;774102;178;917319;-57
2023/07/19 05:06:25;;;;;;;13.40;6.60;;;;;;;;;;774114;180;846862;-60
2023/07/19 05:08:51;;;;;;;9.53;6.13;;;;;;;;;;779812;180;915908;-59
2023/07/19 05:11:19;;;;;;;9.57;6.10;;;;;;;;;;775031;179;920087;-57
2023/07/19 05:13:43;;;;;;;8.23;5.97;;;;;;;;;;772509;178;921124;-57
2023/07/19 05:16:09;;;;;;;9.43;6.23;;;;;;;;;;777589;179;925845;-59
2023/07/19 05:18:35;;;;;;;8.43;5.60;;;;;;;;;;770778;180;938789;-61
2023/07/19 05:21:00;;;;;;;10.20;6.20;;;;;;;;;;772048;180;918754;-60
2023/07/19 05:23:26;;;;;;;12.80;6.53;;;;;;;;;;771683;180;932319;-57
2023/07/19 05:25:52;;;;;;;9.23;6.33;;;;;;;;;;776007;180;920935;-59
2023/07/19 05:28:20;;;;;;;7.87;5.83;;;;;;;;;;775147;180;926456;-60
2023/07/19 05:30:44;;;;;;;10.20;6.00;;;;;;;;;;775622;179;903300;-59
2023/07/19 05:33:10;;;;;;;8.90;6.37;;;;;;;;;;775605;180;843824;-60
2023/07/19 05:35:36;;;;;;;10.87;5.90;;;;;;;;;;773473;180;818991;-60
2023/07/19 05:38:03;;;;;;;8.80;6.20;;;;;;;;;;777010;180;817710;-57
2023/07/19 05:40:27;;;;;;;10.40;6.60;;;;;;;;;;777983;179;926782;-59
2023/07/19 05:42:53;;;;;;;14.02;7.20;;;;;;;;;;771188;180;814192;-58
2023/07/19 05:45:19;;;;;;;10.90;5.53;;;;;;;;;;774427;180;918228;-63
2023/07/19 05:47:45;;;;;;;10.27;6.33;;;;;;;;;;774093;179;914430;-61
2023/07/19 05:50:11;;;;;;;17.00;6.97;;;;;;;;;;767769;181;815078;-55
2023/07/19 05:52:37;;;;;;;10.13;5.43;;;;;;;;;;773236;179;922521;-56
2023/07/19 05:55:02;;;;;;;13.40;6.67;;;;;;;;;;761722;181;916820;-59
2023/07/19 05:57:30;;;;;;;9.03;6.00;;;;;;;;;;774686;180;918044;-57
2023/07/19 05:59:54;;;;;;;11.43;8.60;;;;;;;;;;770660;179;920839;-56
2023/07/19 06:02:20;;;;;;;10.10;6.60;;;;;;;;;;772466;180;917208;-57
2023/07/19 06:04:46;;;;;;;10.10;5.30;;;;;;;;;;774780;180;866692;-60
2023/07/19 06:07:12;;;;;;;9.70;5.83;;;;;;;;;;769471;178;916336;-59
2023/07/19 06:09:37;;;;;;;13.23;6.12;;;;;;;;;;775086;178;917584;-58
2023/07/19 06:12:04;;;;;;;10.50;5.53;;;;;;;;;;772970;179;818618;-59
2023/07/19 06:14:30;;;;;;;9.87;5.43;;;;;;;;;;774521;179;918981;-59
2023/07/19 06:16:56;;;;;;;8.80;5.37;;;;;;;;;;773878;180;918713;-61
2023/07/19 06:19:21;;;;;;;13.63;6.40;;;;;;;;;;767610;180;919205;-60
2023/07/19 06:21:47;;;;;;;8.23;5.47;;;;;;;;;;780381;180;919783;-57
2023/07/19 06:24:13;;;;;;;9.87;5.60;;;;;;;;;;776164;180;917319;-61
2023/07/19 06:26:39;;;;;;;13.13;5.50;;;;;;;;;;773520;180;918922;-57
2023/07/19 06:29:05;;;;;;;8.13;5.30;;;;;;;;;;774578;180;912484;-61
2023/07/19 06:31:31;;;;;;;9.13;6.20;;;;;;;;;;773907;179;914450;-57
2023/07/19 06:33:56;;;;;;;5.97;4.67;;;;;;;;;;774519;179;920022;-60
2023/07/19 06:36:22;;;;;;;10.07;5.90;;;;;;;;;;780015;178;918995;-60
2023/07/19 06:38:48;;;;;;;9.47;4.83;;;;;;;;;;773694;180;921901;-60
2023/07/19 06:41:14;;;;;;;10.17;6.20;;;;;;;;;;773293;179;919204;-57
2023/07/19 06:43:40;;;;;;;8.00;5.47;;;;;;;;;;773625;180;922638;-57
2023/07/19 06:46:06;;;;;;;9.23;5.93;;;;;;;;;;774119;180;918961;-58
2023/07/19 06:48:31;;;;;;;12.90;5.80;;;;;;;;;;775883;179;921346;-57
2023/07/19 06:50:57;;;;;;;8.50;5.03;;;;;;;;;;776862;179;816120;-61
2023/07/19 06:53:23;;;;;;;9.23;5.70;;;;;;;;;;773305;179;919229;-61
2023/07/19 06:55:52;;;;;;;7.90;5.57;;;;;;;;;;774616;180;918620;-57
2023/07/19 06:58:15;;;;;;;8.53;5.13;;;;;;;;;;771274;181;919191;-61
2023/07/19 07:00:41;;;;;;;9.20;5.00;;;;;;;;;;781143;180;901480;-57
2023/07/19 07:03:07;;;;;;;9.60;5.50;;;;;;;;;;774019;181;811349;-59
2023/07/19 07:05:33;;;;;;;7.43;5.20;;;;;;;;;;768532;180;917219;-57
2023/07/19 07:07:58;;;;;;;8.60;5.30;;;;;;;;;;770073;181;910410;-57
2023/07/19 07:10:24;;;;;;;9.00;4.87;;;;;;;;;;776749;180;915698;-57
2023/07/19 07:12:50;;;;;;;9.20;6.10;;;;;;;;;;766625;181;847223;-60
2023/07/19 07:15:16;;;;;;;10.70;5.27;;;;;;;;;;771525;180;857780;-61
2023/07/19 07:17:43;;;;;;;10.63;6.10;;;;;;;;;;777180;179;918776;-60
2023/07/19 07:20:08;;;;;;;10.00;6.20;;;;;;;;;;777785;178;918926;-61
2023/07/19 07:22:34;;;;;;;7.83;5.10;;;;;;;;;;774998;179;919186;-57
2023/07/19 07:24:59;;;;;;;10.07;5.17;;;;;;;;;;783237;178;857053;-61
2023/07/19 07:27:27;;;;;;;6.23;4.43;;;;;;;;;;777051;179;923545;-57
2023/07/19 07:29:51;;;;;;;10.30;5.00;;;;;;;;;;774876;180;911112;-61
2023/07/19 07:32:17;;;;;;;8.40;5.93;;;;;;;;;;778175;180;919271;-60
2023/07/19 07:34:43;;;;;;;10.00;5.30;;;;;;;;;;768859;180;918901;-60
2023/07/19 07:37:09;;;;;;;12.13;5.07;;;;;;;;;;769169;180;943913;-57
2023/07/19 07:39:35;;;;;;;7.27;5.20;;;;;;;;;;773661;180;920087;-62
2023/07/19 07:42:01;;;;;;;8.57;5.70;;;;;;;;;;775862;180;895189;-57
2023/07/19 07:44:26;;;;;;;8.07;4.93;;;;;;;;;;773915;180;916255;-61
2023/07/19 07:46:52;;;;;;;11.00;5.50;;;;;;;;;;775065;179;918967;-58
2023/07/19 07:49:18;;;;;;;8.90;5.80;;;;;;;;;;781000;179;863010;-62
2023/07/19 07:51:44;;;;;;;12.83;5.77;;;;;;;;;;776382;179;914904;-57
2023/07/19 07:54:09;;;;;;;7.68;5.47;;;;;;;;;;771063;180;924631;-61
2023/07/19 07:56:35;;;;;;;7.97;5.07;;;;;;;;;;776100;180;918650;-61
2023/07/19 07:59:02;;;;;;;9.03;5.27;;;;;;;;;;773186;179;919539;-61
2023/07/19 08:01:27;;;;;;;11.30;5.70;;;;;;;;;;772547;180;912743;-62
2023/07/19 08:03:53;;;;;;;9.60;5.07;;;;;;;;;;772156;181;906933;-58
2023/07/19 08:06:19;;;;;;;10.20;5.10;;;;;;;;;;769630;181;916845;-62
2023/07/19 08:08:45;;;;;;;9.67;4.40;;;;;;;;;;770622;180;919528;-62
2023/07/19 08:11:10;;;;;;;7.60;4.67;;;;;;;;;;771225;180;918586;-58
2023/07/19 08:13:36;;;;;;;10.47;5.03;;;;;;;;;;778836;180;919175;-58
2023/07/19 08:16:06;;;;;;;8.33;6.03;;;;;;;;;;771101;180;919101;-61
2023/07/19 08:18:28;;;;;;;11.70;4.90;;;;;;;;;;777264;179;920972;-61
2023/07/19 08:20:54;;;;;;;7.90;5.30;;;;;;;;;;779712;178;819271;-57
2023/07/19 08:23:20;;;;;;;5.60;4.97;;;;;;;;;;773009;181;821590;-57
2023/07/19 08:25:46;;;;;;;8.10;4.75;;;;;;;;;;775021;180;918379;-62
2023/07/19 08:28:12;;;;;;;9.37;5.60;;;;;;;;;;775941;179;919073;-58
2023/07/19 08:30:38;;;;;;;7.33;4.77;;;;;;;;;;776185;180;919483;-57
2023/07/19 08:33:08;;;;;;;10.60;4.53;;;;;;;;;;771241;178;919325;-62
2023/07/19 08:35:29;;;;;;;7.90;5.30;;;;;;;;;;763512;180;918874;-57
2023/07/19 08:37:55;;;;;;;6.83;4.93;;;;;;;;;;783110;178;919758;-57
2023/07/19 08:40:21;;;;;;;7.27;4.80;;;;;;;;;;776479;180;918404;-61
2023/07/19 08:42:47;;;;;;;9.07;5.47;;;;;;;;;;772405;179;918399;-61
2023/07/19 08:45:14;;;;;;;14.03;5.93;;;;;;;;;;774158;180;919245;-58
2023/07/19 08:47:38;;;;;;;8.93;5.90;;;;;;;;;;767071;180;917973;-58
2023/07/19 08:50:05;;;;;;;6.77;5.10;;;;;;;;;;772067;179;917367;-58
2023/07/19 08:52:31;;;;;;;12.97;6.07;;;;;;;;;;777998;180;920335;-62
2023/07/19 08:54:57;;;;;;;9.70;5.60;;;;;;;;;;774674;180;818659;-61
2023/07/19 08:57:22;;;;;;;10.00;5.50;;;;;;;;;;775516;180;914826;-62
2023/07/19 08:59:48;;;;;;;7.33;5.13;;;;;;;;;;771250;180;816913;-61
2023/07/19 09:02:14;;;;;;;9.77;5.67;;;;;;;;;;777639;179;819884;-63
2023/07/19 09:04:40;;;;;;;10.37;5.13;;;;;;;;;;766673;180;919275;-62
2023/07/19 09:07:06;;;;;;;7.13;4.93;;;;;;;;;;771455;180;920606;-58
2023/07/19 09:09:32;;;;;;;7.80;4.90;;;;;;;;;;769263;180;922095;-62
2023/07/19 09:11:57;;;;;;;10.73;5.07;;;;;;;;;;775547;179;880441;-62
2023/07/19 09:14:29;;;;;;;12.60;6.13;;;;;;;;;;774023;179;919949;-61
2023/07/19 09:16:55;;;;;;;15.07;5.40;;;;;;;;;;775562;180;913228;-62
2023/07/19 09:19:21;;;;;;;7.37;4.67;;;;;;;;;;773397;180;906067;-57
2023/07/19 09:21:49;;;;;;;7.70;5.47;;;;;;;;;;771350;179;914740;-62
2023/07/19 09:24:14;;;;;;;13.47;5.13;;;;;;;;;;768608;180;922532;-63
2023/07/19 09:26:45;;;;;;;9.20;4.57;;;;;;;;;;782575;179;816723;-63
2023/07/19 09:29:11;;;;;;;10.80;5.50;;;;;;;;;;773009;180;915504;-61
2023/07/19 09:31:36;;;;;;;7.90;5.43;;;;;;;;;;772812;180;911853;-62
2023/07/19 09:34:02;;;;;;;11.87;5.73;;;;;;;;;;767907;179;812570;-63
2023/07/19 09:36:27;;;;;;;9.60;5.03;;;;;;;;;;772179;181;916987;-58
2023/07/19 09:38:53;;;;;;;6.23;4.83;;;;;;;;;;773678;179;919984;-62
2023/07/19 09:41:20;;;;;;;9.35;5.53;;;;;;;;;;776607;180;920337;-62
2023/07/19 09:43:45;;;;;;;9.17;6.10;;;;;;;;;;781197;179;826211;-58
2023/07/19 09:46:11;;;;;;;10.60;5.70;;;;;;;;;;774194;179;923288;-64
2023/07/19 09:48:37;;;;;;;10.33;5.30;;;;;;;;;;772278;179;920032;-62
2023/07/19 09:51:03;;;;;;;7.63;5.40;;;;;;;;;;779230;179;933746;-62
2023/07/19 09:53:29;;;;;;;12.17;5.33;;;;;;;;;;775811;180;922905;-58
2023/07/19 09:55:55;;;;;;;8.03;5.73;;;;;;;;;;776057;180;910750;-58
2023/07/19 09:58:20;;;;;;;8.80;4.63;;;;;;;;;;774828;178;922663;-60
2023/07/19 10:00:46;;;;;;;8.60;4.47;;;;;;;;;;768026;178;919543;-63
2023/07/19 10:03:12;;;;;;;12.90;5.60;;;;;;;;;;775045;180;919144;-61
2023/07/19 10:05:38;;;;;;;7.03;5.20;;;;;;;;;;773401;180;922084;-63
2023/07/19 10:08:04;;;;;;;7.20;4.87;;;;;;;;;;778771;180;813920;-57
2023/07/19 10:10:35;;;;;;;7.83;5.40;;;;;;;;;;773140;180;922455;-65
2023/07/19 10:13:00;;;;;;;15.43;4.47;;;;;;;;;;771207;180;910676;-63
2023/07/19 10:15:26;;;;;;;8.77;5.10;;;;;;;;;;779234;178;918839;-63
2023/07/19 10:17:54;;;;;;;10.70;5.47;;;;;;;;;;772843;180;919276;-58
2023/07/19 10:20:23;;;;;;;12.47;5.37;;;;;;;;;;769089;180;920549;-62
2023/07/19 10:22:53;;;;;;;10.90;4.90;;;;;;;;;;774332;179;923862;-58
2023/07/19 10:25:19;;;;;;;5.97;4.40;;;;;;;;;;780468;180;819902;-59
2023/07/19 10:27:45;;;;;;;6.47;4.10;;;;;;;;;;775398;180;917327;-62
2023/07/19 10:30:11;;;;;;;8.63;5.37;;;;;;;;;;771064;179;917876;-63
2023/07/19 10:32:37;;;;;;;9.37;5.17;;;;;;;;;;771536;180;981458;-59
2023/07/19 10:35:03;;;;;;;10.13;4.90;;;;;;;;;;770056;181;918719;-58
2023/07/19 10:37:29;;;;;;;9.30;5.00;;;;;;;;;;768045;180;919425;-63
2023/07/19 10:39:55;;;;;;;8.95;5.18;;;;;;;;;;770467;180;921184;-63
2023/07/19 10:42:21;;;;;;;11.73;4.77;;;;;;;;;;782410;179;715779;-62
2023/07/19 10:44:47;;;;;;;4.83;3.40;;;;;;;;;;775398;180;919689;-64
2023/07/19 10:47:14;;;;;;;5.07;3.93;;;;;;;;;;772573;179;818481;-58
2023/07/19 10:49:39;;;;;;;5.90;3.90;;;;;;;;;;773775;180;817652;-62
2023/07/19 10:52:05;;;;;;;7.47;3.93;;;;;;;;;;775651;179;919389;-64
2023/07/19 10:54:31;;;;;;;7.10;4.40;;;;;;;;;;777241;179;921407;-58
2023/07/19 10:56:58;;;;;;;10.13;4.37;;;;;;;;;;778619;179;881706;-63
2023/07/19 10:59:23;;;;;;;5.37;3.63;;;;;;;;;;770319;179;820572;-58
2023/07/19 11:01:49;;;;;;;5.90;4.33;;;;;;;;;;776881;178;918748;-63
2023/07/19 11:04:18;;;;;;;4.53;3.57;;;;;;;;;;772888;179;820857;-63
2023/07/19 11:06:47;;;;;;;6.10;4.00;;;;;;;;;;776390;179;817500;-58
2023/07/19 11:09:13;;;;;;;6.90;4.17;;;;;;;;;;769577;180;922777;-58
2023/07/19 11:11:38;;;;;;;11.50;3.50;;;;;;;;;;772262;180;818088;-58
2023/07/19 11:14:05;;;;;;;7.55;3.40;;;;;;;;;;772659;180;1021559;-59
2023/07/19 11:16:31;;;;;;;5.40;3.67;;;;;;;;;;771738;180;891161;-58
2023/07/19 11:18:58;;;;;;;5.77;3.20;;;;;;;;;;778581;178;918636;-58
2023/07/19 11:21:24;;;;;;;5.37;4.27;;;;;;;;;;773689;180;915586;-58
2023/07/19 11:23:49;;;;;;;9.53;3.40;;;;;;;;;;777672;179;918466;-64
2023/07/19 11:26:15;;;;;;;5.37;3.83;;;;;;;;;;769143;179;924098;-62
2023/07/19 11:28:43;;;;;;;8.57;3.87;;;;;;;;;;770883;180;918672;-58
2023/07/19 11:31:10;;;;;;;8.13;3.40;;;;;;;;;;777737;180;919385;-58
2023/07/19 11:33:36;;;;;;;13.13;3.77;;;;;;;;;;774624;179;941100;-64
2023/07/19 11:36:01;;;;;;;5.50;3.97;;;;;;;;;;775753;181;919608;-58
2023/07/19 11:38:26;;;;;;;7.67;3.80;;;;;;;;;;776159;180;816394;-59
2023/07/19 11:40:52;;;;;;;8.03;4.30;;;;;;;;;;774436;181;818431;-64
2023/07/19 11:43:18;;;;;;;8.83;3.50;;;;;;;;;;768659;180;921770;-64
2023/07/19 11:45:44;;;;;;;6.05;3.95;;;;;;;;;;772179;180;918712;-59
2023/07/19 11:48:10;;;;;;;9.83;4.13;;;;;;;;;;780984;181;916566;-58
2023/07/19 11:50:38;;;;;;;9.57;3.90;;;;;;;;;;768921;179;917098;-58
2023/07/19 11:53:02;;;;;;;5.30;3.93;;;;;;;;;;774003;179;814126;-62
2023/07/19 11:55:27;;;;;;;5.00;3.57;;;;;;;;;;778576;180;817010;-62
2023/07/19 11:57:53;;;;;;;5.70;3.75;;;;;;;;;;776777;179;918666;-58
2023/07/19 12:00:20;;;;;;;8.73;4.23;;;;;;;;;;772950;180;919378;-58
2023/07/19 12:02:46;;;;;;;5.00;3.40;;;;;;;;;;772507;179;919542;-58
2023/07/19 12:05:13;;;;;;;7.13;4.10;;;;;;;;;;774430;179;864636;-57
2023/07/19 12:07:38;;;;;;;7.23;3.83;;;;;;;;;;773429;179;914563;-58
2023/07/19 12:10:04;;;;;;;4.87;3.87;;;;;;;;;;773268;179;918395;-58
2023/07/19 12:12:31;;;;;;;9.70;3.97;;;;;;;;;;783022;179;816335;-58
2023/07/19 12:14:57;;;;;;;10.23;4.40;;;;;;;;;;775026;180;867282;-62
2023/07/19 12:17:23;;;;;;;6.33;3.93;;;;;;;;;;776137;180;920019;-63
2023/07/19 12:19:49;;;;;;;7.40;3.93;;;;;;;;;;779102;180;908661;-58
2023/07/19 12:22:15;;;;;;;5.83;3.37;;;;;;;;;;771457;180;914915;-59
2023/07/19 12:24:40;;;;;;;6.77;4.07;;;;;;;;;;772458;180;915022;-57
2023/07/19 12:27:06;;;;;;;5.40;3.77;;;;;;;;;;769883;180;916390;-63
2023/07/19 12:29:32;;;;;;;9.23;4.10;;;;;;;;;;774926;181;919105;-58
2023/07/19 12:31:58;;;;;;;8.03;3.73;;;;;;;;;;772203;180;919738;-58
2023/07/19 12:34:24;;;;;;;6.07;3.70;;;;;;;;;;770651;180;816766;-63
2023/07/19 12:36:50;;;;;;;6.03;3.63;;;;;;;;;;775248;179;914181;-58
2023/07/19 12:39:16;;;;;;;5.70;3.80;;;;;;;;;;772353;180;919803;-62
2023/07/19 12:41:42;;;;;;;10.37;4.23;;;;;;;;;;777112;179;920466;-58
2023/07/19 12:44:07;;;;;;;5.63;3.77;;;;;;;;;;779342;178;920533;-58
2023/07/19 12:46:33;;;;;;;4.20;3.10;;;;;;;;;;775715;179;816737;-63
2023/07/19 12:48:59;;;;;;;9.73;3.70;;;;;;;;;;766579;179;920988;-58
2023/07/19 12:51:25;;;;;;;7.50;4.20;;;;;;;;;;777865;179;920112;-64
2023/07/19 12:53:51;;;;;;;5.97;4.10;;;;;;;;;;773073;180;921761;-65
2023/07/19 12:56:16;;;;;;;5.47;3.80;;;;;;;;;;769739;181;918968;-59
2023/07/19 12:58:42;;;;;;;5.57;3.87;;;;;;;;;;775194;179;922405;-58
2023/07/19 13:01:08;;;;;;;9.73;3.93;;;;;;;;;;774068;180;918783;-61
2023/07/19 13:03:34;;;;;;;6.60;3.83;;;;;;;;;;768341;179;919574;-58
2023/07/19 13:06:00;;;;;;;4.83;3.53;;;;;;;;;;776848;179;819311;-61
2023/07/19 13:08:27;;;;;;;7.87;4.10;;;;;;;;;;779806;179;919030;-62
2023/07/19 13:10:51;;;;;;;7.73;3.90;;;;;;;;;;773541;179;921646;-62
2023/07/19 13:13:17;;;;;;;5.60;3.80;;;;;;;;;;772571;179;931726;-60
2023/07/19 13:15:43;;;;;;;4.90;3.40;;;;;;;;;;779456;180;915839;-61
2023/07/19 13:18:09;;;;;;;10.53;4.10;;;;;;;;;;764953;179;917436;-58
2023/07/19 13:20:35;;;;;;;7.00;3.67;;;;;;;;;;776854;179;915449;-62
2023/07/19 13:23:01;;;;;;;5.00;4.00;;;;;;;;;;769770;180;915894;-63
2023/07/19 13:25:27;;;;;;;6.70;3.80;;;;;;;;;;778297;179;916722;-62
2023/07/19 13:27:52;;;;;;;5.23;4.00;;;;;;;;;;773369;180;907231;-57
2023/07/19 13:30:18;;;;;;;6.10;3.60;;;;;;;;;;774820;179;909746;-58
2023/07/19 13:32:44;;;;;;;5.20;3.23;;;;;;;;;;780724;178;868061;-62
2023/07/19 13:35:10;;;;;;;7.77;4.47;;;;;;;;;;774410;179;915230;-61
2023/07/19 13:37:36;;;;;;;4.57;3.03;;;;;;;;;;774681;179;915630;-58
2023/07/19 13:40:02;;;;;;;6.60;4.20;;;;;;;;;;773754;180;917046;-58
2023/07/19 13:42:32;;;;;;;8.77;3.90;;;;;;;;;;767782;179;1943277;-61
2023/07/19 13:44:54;;;;;;;10.03;3.40;;;;;;;;;;770197;180;918159;-61
2023/07/19 13:47:20;;;;;;;9.53;4.30;;;;;;;;;;772486;180;920368;-58
2023/07/19 13:49:46;;;;;;;6.07;4.00;;;;;;;;;;769654;180;911401;-58
2023/07/19 13:52:12;;;;;;;5.50;4.40;;;;;;;;;;777578;179;921939;-58
2023/07/19 13:54:38;;;;;;;9.82;4.07;;;;;;;;;;773668;179;921140;-57
2023/07/19 13:57:04;;;;;;;6.20;3.87;;;;;;;;;;777988;181;918619;-62
2023/07/19 13:59:30;;;;;;;6.93;3.67;;;;;;;;;;770583;180;919389;-62
2023/07/19 14:01:56;;;;;;;9.00;3.93;;;;;;;;;;773351;180;918762;-62
2023/07/19 14:04:22;;;;;;;5.63;4.00;;;;;;;;;;775029;180;899184;-58
2023/07/19 14:06:47;;;;;;;6.30;4.13;;;;;;;;;;771137;180;919172;-60
2023/07/19 14:09:13;;;;;;;6.20;3.70;;;;;;;;;;772824;181;920325;-61
2023/07/19 14:11:39;;;;;;;5.03;3.37;;;;;;;;;;773591;180;921300;-61
2023/07/19 14:14:05;;;;;;;5.70;4.47;;;;;;;;;;768005;181;915265;-59
2023/07/19 14:16:31;;;;;;;7.80;4.07;;;;;;;;;;773157;179;860750;-58